Time;durP1;ratioP1;P1;durP2;ratioP2;P2;SDS_P1;SDS_P2;PMS_P1;PMS_P2;Temp;Humidity;BMP_temperature;BMP_pressure;BME280_temperature;BME280_humidity;BME280_pressure;Samples;Min_cycle;Max_cycle;Signal;HPM_P1;HPM_P2
2023/03/29 00:02:19;;;;;;;10.00;4.30;;;;;;;4.96;89.23;101540.34;5024124;28;20025;-57
2023/03/29 00:04:44;;;;;;;10.90;4.53;;;;;;;4.96;90.01;101543.00;5032532;28;20041;-57
2023/03/29 00:07:10;;;;;;;8.57;4.20;;;;;;;4.97;89.62;101538.56;5026027;28;20030;-58
2023/03/29 00:09:36;;;;;;;6.60;4.10;;;;;;;4.96;89.06;101532.47;5022950;28;20034;-58
2023/03/29 00:12:01;;;;;;;6.85;4.25;;;;;;;4.98;89.77;101527.09;5025550;28;20436;-58
2023/03/29 00:14:29;;;;;;;7.13;3.92;;;;;;;4.96;89.82;101537.72;5032159;28;20074;-57
2023/03/29 00:16:54;;;;;;;9.40;4.00;;;;;;;5.00;89.56;101532.25;5036226;28;20026;-61
2023/03/29 00:19:20;;;;;;;7.57;3.92;;;;;;;5.00;90.30;101527.84;5036878;28;20036;-58
2023/03/29 00:21:45;;;;;;;7.80;3.90;;;;;;;4.98;89.93;101520.06;5031182;28;20036;-57
2023/03/29 00:24:10;;;;;;;8.73;4.30;;;;;;;4.98;91.15;101529.72;5031835;28;20484;-58
2023/03/29 00:26:36;;;;;;;7.22;4.18;;;;;;;4.97;90.91;101517.53;5034868;28;20116;-58
2023/03/29 00:29:01;;;;;;;6.88;4.28;;;;;;;4.98;90.83;101520.06;5028001;28;20125;-57
2023/03/29 00:31:27;;;;;;;7.80;3.88;;;;;;;4.95;90.82;101515.00;5020032;28;20449;-59
2023/03/29 00:33:52;;;;;;;8.02;4.07;;;;;;;5.01;90.94;101513.75;5023774;28;20476;-57
2023/03/29 00:36:18;;;;;;;6.47;3.92;;;;;;;5.05;90.89;101514.38;5033121;28;20025;-57
2023/03/29 00:38:44;;;;;;;8.43;3.88;;;;;;;5.04;90.87;101512.69;5028881;28;20029;-57
2023/03/29 00:41:10;;;;;;;9.80;3.95;;;;;;;5.04;91.14;101515.31;5025507;28;20021;-57
2023/03/29 00:43:58;;;;;;;9.13;4.00;;;;;;;5.07;91.50;101513.31;5024848;28;20030;-57
2023/03/29 00:46:25;;;;;;;6.57;4.00;;;;;;;5.07;90.96;101515.09;5029667;28;20029;-57
2023/03/29 00:48:58;;;;;;;7.68;3.97;;;;;;;5.06;91.41;101502.88;5027592;28;20095;-57
2023/03/29 00:51:28;;;;;;;6.07;3.85;;;;;;;5.07;90.94;101501.94;5034316;28;20041;-57
2023/03/29 00:53:58;;;;;;;7.55;3.83;;;;;;;5.09;89.95;101500.06;5033700;28;20029;-57
2023/03/29 00:56:29;;;;;;;5.60;3.60;;;;;;;5.13;90.11;101501.50;5034444;28;20049;-57
2023/03/29 00:59:03;;;;;;;7.57;3.95;;;;;;;5.21;89.02;101499.19;5024884;28;20030;-58
2023/03/29 01:01:29;;;;;;;8.38;3.72;;;;;;;5.18;90.22;101488.88;5029074;28;20042;-58
2023/03/29 01:04:16;;;;;;;5.32;3.60;;;;;;;5.18;89.72;101490.69;5033088;28;20474;-57
2023/03/29 01:06:48;;;;;;;7.50;3.88;;;;;;;5.20;90.28;101487.00;5036563;28;20179;-58
2023/03/29 01:09:16;;;;;;;9.20;3.63;;;;;;;5.17;90.52;101481.94;5020553;28;20038;-58
2023/03/29 01:11:50;;;;;;;7.97;3.80;;;;;;;5.20;89.73;101484.34;5028694;28;20025;-58
2023/03/29 01:14:32;;;;;;;7.70;4.00;;;;;;;5.22;91.19;101478.97;5031208;28;20083;-57
2023/03/29 01:16:58;;;;;;;6.53;3.70;;;;;;;5.21;90.22;101483.41;5037539;28;20033;-57
2023/03/29 01:19:29;;;;;;;7.78;4.05;;;;;;;5.20;91.08;101487.00;5028655;28;20049;-57
2023/03/29 01:22:09;;;;;;;8.10;4.00;;;;;;;5.24;91.09;101483.16;5030310;28;20022;-59
2023/03/29 01:24:53;;;;;;;4.90;3.80;;;;;;;5.22;91.40;101474.56;5033918;28;20025;-57
2023/03/29 01:27:41;;;;;;;9.05;3.80;;;;;;;5.25;91.47;101476.13;5038323;28;20401;-58
2023/03/29 01:30:15;;;;;;;10.57;4.18;;;;;;;5.21;92.11;101465.00;5033984;28;20033;-57
2023/03/29 01:33:23;;;;;;;10.20;4.18;;;;;;;5.17;92.19;101453.00;5022183;28;20045;-58
2023/03/29 01:36:00;;;;;;;10.75;4.47;;;;;;;5.22;92.97;101456.16;5036341;28;20543;-57
2023/03/29 01:38:33;;;;;;;8.27;4.20;;;;;;;5.22;92.28;101456.16;5024465;28;20049;-57
2023/03/29 01:41:01;;;;;;;6.63;4.18;;;;;;;5.25;92.65;101457.72;5023009;28;20022;-57
2023/03/29 01:43:35;;;;;;;8.57;4.30;;;;;;;5.29;92.83;101453.06;5022357;28;20037;-57
2023/03/29 01:46:44;;;;;;;7.80;3.75;;;;;;;5.30;93.27;101452.13;5030923;28;20083;-58
2023/03/29 01:49:31;;;;;;;7.47;3.90;;;;;;;5.28;93.88;101440.88;5033615;28;20044;-57
2023/03/29 01:52:21;;;;;;;8.85;4.30;;;;;;;5.31;93.95;101445.91;5026269;28;20041;-57
2023/03/29 01:54:53;;;;;;;7.32;4.22;;;;;;;5.31;93.47;101440.66;5027235;28;20036;-57
2023/03/29 01:57:21;;;;;;;9.27;4.10;;;;;;;5.31;93.88;101430.13;5026030;28;20026;-57
2023/03/29 01:59:48;;;;;;;9.70;4.07;;;;;;;5.31;94.34;101430.97;5022260;28;20037;-60
2023/03/29 02:02:17;;;;;;;9.15;4.00;;;;;;;5.32;93.79;101427.38;5022054;28;20183;-57
2023/03/29 02:04:48;;;;;;;8.40;3.83;;;;;;;5.32;94.68;101426.56;5027443;28;20053;-57
2023/03/29 02:07:18;;;;;;;5.80;3.95;;;;;;;5.28;94.65;101419.84;5024854;28;20033;-58
2023/03/29 02:09:47;;;;;;;6.57;3.95;;;;;;;5.30;95.28;101417.94;5030662;28;20026;-58
2023/03/29 02:12:15;;;;;;;5.63;3.88;;;;;;;5.30;94.90;101418.78;5035644;28;20029;-58
2023/03/29 02:14:40;;;;;;;7.10;3.85;;;;;;;5.31;94.98;101415.19;5022463;28;20036;-57
2023/03/29 02:17:24;;;;;;;7.22;4.25;;;;;;;5.34;95.49;101403.63;5023931;28;20030;-57
2023/03/29 02:19:55;;;;;;;8.50;3.72;;;;;;;5.32;95.01;101411.63;5039661;28;20095;-57
2023/03/29 02:22:33;;;;;;;7.00;4.20;;;;;;;5.34;95.66;101401.81;5037617;28;20099;-57
2023/03/29 02:25:02;;;;;;;8.05;3.70;;;;;;;5.35;95.28;101405.28;5042897;28;20049;-58
2023/03/29 02:27:28;;;;;;;6.32;3.72;;;;;;;5.37;94.80;101401.59;5033247;28;20538;-57
2023/03/29 02:29:54;;;;;;;5.10;3.70;;;;;;;5.39;93.89;101394.41;5016904;28;20025;-58
2023/03/29 02:32:29;;;;;;;8.02;4.18;;;;;;;5.38;93.47;101394.56;5039689;28;20032;-58
2023/03/29 02:35:00;;;;;;;5.80;3.50;;;;;;;5.38;92.74;101389.28;5030772;28;20029;-57
2023/03/29 02:37:30;;;;;;;7.03;3.75;;;;;;;5.41;92.13;101390.84;5033821;28;20038;-60
2023/03/29 02:39:57;;;;;;;8.93;3.40;;;;;;;5.42;92.63;101395.97;5036687;28;20424;-58
2023/03/29 02:42:24;;;;;;;7.72;3.70;;;;;;;5.45;92.68;101390.50;5041051;28;20032;-59
2023/03/29 02:44:53;;;;;;;8.00;3.92;;;;;;;5.46;92.12;101386.91;5035398;28;20036;-57
2023/03/29 02:47:34;;;;;;;8.88;3.47;;;;;;;5.49;91.32;101375.34;5026760;28;20080;-59
2023/03/29 02:50:00;;;;;;;7.22;3.58;;;;;;;5.50;90.85;101377.84;5035514;28;20048;-59
2023/03/29 02:52:32;;;;;;;7.07;3.58;;;;;;;5.48;90.58;101369.22;5049699;28;20033;-58
2023/03/29 02:54:59;;;;;;;6.13;3.47;;;;;;;5.51;90.42;101369.00;5034921;28;20092;-58
2023/03/29 02:57:25;;;;;;;6.35;3.60;;;;;;;5.52;89.87;101368.06;5031384;28;20033;-57
2023/03/29 02:59:53;;;;;;;5.88;3.42;;;;;;;5.51;90.26;101363.75;5036262;28;20041;-57
2023/03/29 03:02:19;;;;;;;7.88;3.80;;;;;;;5.55;89.55;101363.50;5032586;28;20030;-59
2023/03/29 03:04:44;;;;;;;6.95;3.33;;;;;;;5.56;89.14;101373.06;5025608;28;20063;-58
2023/03/29 03:07:10;;;;;;;8.32;3.70;;;;;;;5.58;89.08;101369.38;5030921;28;20041;-57
2023/03/29 03:09:35;;;;;;;7.80;3.35;;;;;;;5.60;89.68;101369.25;5027845;28;20029;-57
2023/03/29 03:12:00;;;;;;;7.43;3.40;;;;;;;5.60;88.60;101372.75;5032003;28;20025;-58
2023/03/29 03:14:27;;;;;;;7.55;3.60;;;;;;;5.62;88.87;101369.97;5030187;28;20710;-58
2023/03/29 03:16:53;;;;;;;5.70;3.40;;;;;;;5.62;89.06;101364.72;5030309;28;20037;-58
2023/03/29 03:19:20;;;;;;;5.10;3.35;;;;;;;5.63;88.63;101355.88;5027719;28;20041;-57
2023/03/29 03:21:45;;;;;;;7.50;3.50;;;;;;;5.62;87.91;101349.78;5031883;28;20061;-57
2023/03/29 03:24:11;;;;;;;7.28;3.28;;;;;;;5.64;89.27;101347.03;5027644;28;20068;-57
2023/03/29 03:26:37;;;;;;;6.00;3.45;;;;;;;5.64;88.42;101342.59;5028934;28;20034;-59
2023/03/29 03:29:03;;;;;;;5.70;3.20;;;;;;;5.68;88.13;101347.63;5026525;28;20041;-58
2023/03/29 03:31:29;;;;;;;7.43;3.15;;;;;;;5.67;87.68;101344.16;5022550;28;20021;-57
2023/03/29 03:33:55;;;;;;;5.32;3.30;;;;;;;5.67;88.82;101333.63;5033885;28;20423;-57
2023/03/29 03:36:25;;;;;;;6.78;3.40;;;;;;;5.69;88.13;101344.91;5021476;28;20030;-57
2023/03/29 03:38:53;;;;;;;7.43;3.60;;;;;;;5.71;87.95;101352.66;5032515;28;20049;-57
2023/03/29 03:41:18;;;;;;;8.25;3.65;;;;;;;5.71;87.56;101350.03;5023599;28;20034;-57
2023/03/29 03:43:47;;;;;;;5.78;3.40;;;;;;;5.70;87.22;101346.56;5032198;28;20396;-58
2023/03/29 03:46:15;;;;;;;5.15;3.33;;;;;;;5.71;87.29;101350.88;5022828;28;20543;-57
2023/03/29 03:48:48;;;;;;;10.35;3.65;;;;;;;5.71;87.31;101348.25;5063846;28;20404;-56
2023/03/29 03:51:14;;;;;;;6.00;3.50;;;;;;;5.72;87.31;101355.16;5065160;28;20044;-56
2023/03/29 03:53:39;;;;;;;6.25;3.33;;;;;;;5.72;87.86;101356.97;5059917;28;20029;-56
2023/03/29 03:56:07;;;;;;;7.38;3.35;;;;;;;5.71;87.58;101353.50;5046036;28;20420;-56
2023/03/29 03:58:36;;;;;;;7.50;3.72;;;;;;;5.75;87.81;101346.22;5046088;28;20029;-56
2023/03/29 04:01:03;;;;;;;5.97;3.50;;;;;;;5.75;87.19;101343.56;5042115;28;20087;-59
2023/03/29 04:03:29;;;;;;;5.53;3.40;;;;;;;5.76;87.01;101346.09;5039026;28;20037;-58
2023/03/29 04:05:54;;;;;;;6.90;3.47;;;;;;;5.75;87.57;101341.78;5045036;28;20029;-57
2023/03/29 04:08:21;;;;;;;7.20;3.83;;;;;;;5.75;87.14;101336.53;5047983;28;20116;-56
2023/03/29 04:10:57;;;;;;;10.80;3.80;;;;;;;5.77;87.57;101339.88;5043673;28;20036;-56
2023/03/29 04:13:25;;;;;;;8.80;3.58;;;;;;;5.76;86.48;101332.94;5042091;28;20033;-57
2023/03/29 04:15:53;;;;;;;6.53;3.60;;;;;;;5.79;87.50;101339.75;5044253;28;20043;-56
2023/03/29 04:18:20;;;;;;;6.82;3.42;;;;;;;5.77;87.44;101331.97;5036889;28;20033;-59
2023/03/29 04:20:46;;;;;;;7.90;3.50;;;;;;;5.78;87.31;101332.81;5041233;28;20029;-60
2023/03/29 04:23:13;;;;;;;5.80;3.40;;;;;;;5.77;87.41;101331.97;5043593;28;20037;-59
2023/03/29 04:25:38;;;;;;;9.13;3.83;;;;;;;5.78;86.89;101328.38;5041197;28;20047;-59
2023/03/29 04:28:04;;;;;;;8.68;3.75;;;;;;;5.78;87.55;101322.31;5047396;28;20025;-59
2023/03/29 04:30:29;;;;;;;10.32;4.00;;;;;;;5.80;87.23;101320.38;5040662;28;20036;-59
2023/03/29 04:32:54;;;;;;;5.65;3.58;;;;;;;5.79;87.64;101332.69;5044189;28;20491;-58
2023/03/29 04:35:20;;;;;;;9.45;4.00;;;;;;;5.79;87.69;101324.78;5043377;28;20421;-62
2023/03/29 04:37:47;;;;;;;9.48;4.10;;;;;;;5.77;87.06;101320.59;5047168;28;20091;-59
2023/03/29 04:40:13;;;;;;;8.50;3.83;;;;;;;5.81;86.75;101321.22;5044804;28;20029;-59
2023/03/29 04:42:43;;;;;;;7.22;3.95;;;;;;;5.84;87.09;101328.88;5039194;28;20103;-57
2023/03/29 04:45:09;;;;;;;11.32;4.00;;;;;;;5.85;87.27;101317.38;5034014;28;20068;-57
2023/03/29 04:47:35;;;;;;;7.03;3.97;;;;;;;5.86;86.88;101325.16;5042657;28;20045;-56
2023/03/29 04:50:02;;;;;;;6.93;3.90;;;;;;;5.86;86.79;101319.91;5038164;28;20060;-57
2023/03/29 04:52:31;;;;;;;9.32;4.40;;;;;;;5.87;86.83;101312.84;5045905;28;20030;-57
2023/03/29 04:54:57;;;;;;;6.47;3.92;;;;;;;5.88;87.21;101311.91;5039806;28;20461;-57
2023/03/29 04:57:22;;;;;;;9.50;4.00;;;;;;;5.88;87.04;101315.34;5041224;28;20040;-57
2023/03/29 04:59:47;;;;;;;7.35;4.15;;;;;;;5.90;86.65;101309.97;5029654;28;20026;-57
2023/03/29 05:02:13;;;;;;;9.48;4.15;;;;;;;5.91;86.80;101312.50;5031413;28;20059;-58
2023/03/29 05:04:38;;;;;;;7.45;3.83;;;;;;;5.89;87.21;101292.50;5023849;28;20037;-57
2023/03/29 05:07:05;;;;;;;7.00;4.05;;;;;;;5.96;86.86;101298.16;5032771;28;20032;-57
2023/03/29 05:09:30;;;;;;;7.82;4.18;;;;;;;5.96;86.58;101304.22;5025436;28;20044;-57
2023/03/29 05:11:56;;;;;;;7.70;3.70;;;;;;;6.00;86.27;101299.56;5027094;28;20037;-57
2023/03/29 05:14:22;;;;;;;7.07;3.80;;;;;;;5.99;85.91;101298.75;5024434;28;20061;-58
2023/03/29 05:16:47;;;;;;;8.70;4.13;;;;;;;6.03;86.40;101297.56;5026821;28;20049;-58
2023/03/29 05:19:13;;;;;;;8.50;4.07;;;;;;;6.04;86.14;101290.50;5028150;28;20034;-57
2023/03/29 05:21:38;;;;;;;8.57;3.85;;;;;;;6.08;85.81;101296.38;5027841;28;20100;-59
2023/03/29 05:24:03;;;;;;;9.27;4.40;;;;;;;6.10;85.64;101299.69;5028255;28;20033;-57
2023/03/29 05:26:29;;;;;;;11.13;4.18;;;;;;;6.11;86.03;101301.41;5026961;28;20033;-57
2023/03/29 05:28:54;;;;;;;7.13;3.92;;;;;;;6.12;86.36;101297.81;5025479;28;20404;-57
2023/03/29 05:31:19;;;;;;;8.77;4.20;;;;;;;6.12;86.10;101301.25;5032062;28;20044;-57
2023/03/29 05:33:49;;;;;;;10.90;4.30;;;;;;;6.15;85.90;101305.44;5028672;28;20084;-57
2023/03/29 05:36:17;;;;;;;10.23;4.20;;;;;;;6.18;86.21;101307.84;5025561;28;20025;-57
2023/03/29 05:38:46;;;;;;;10.30;4.32;;;;;;;6.19;85.94;101314.78;5029531;28;20034;-57
2023/03/29 05:41:12;;;;;;;9.00;4.35;;;;;;;6.22;85.79;101319.81;5025641;28;20077;-57
2023/03/29 05:43:38;;;;;;;6.93;4.30;;;;;;;6.23;86.60;101326.78;5024775;28;20041;-59
2023/03/29 05:46:04;;;;;;;8.90;4.25;;;;;;;6.24;86.05;101312.63;5026821;28;20026;-58
2023/03/29 05:48:30;;;;;;;9.00;4.22;;;;;;;6.25;86.75;101319.56;5028573;28;20049;-57
2023/03/29 05:50:56;;;;;;;8.95;4.30;;;;;;;6.24;86.79;101312.63;5024839;28;20042;-56
2023/03/29 05:53:23;;;;;;;7.95;4.30;;;;;;;6.26;86.68;101321.25;5025398;28;20041;-57
2023/03/29 05:55:50;;;;;;;9.18;4.25;;;;;;;6.28;86.73;101324.59;5027322;28;20029;-57
2023/03/29 05:58:19;;;;;;;9.63;4.78;;;;;;;6.32;86.61;101319.94;5020431;28;20112;-59
2023/03/29 06:00:45;;;;;;;7.93;4.65;;;;;;;6.33;86.68;101322.44;5026687;28;20079;-57
2023/03/29 06:03:17;;;;;;;10.55;4.43;;;;;;;6.33;87.16;101317.16;5033649;28;20381;-57
2023/03/29 06:05:45;;;;;;;8.90;4.40;;;;;;;6.38;86.68;101326.50;5028735;28;20032;-57
2023/03/29 06:08:10;;;;;;;11.70;4.65;;;;;;;6.40;86.17;101321.94;5026996;28;20040;-58
2023/03/29 06:10:36;;;;;;;6.47;4.03;;;;;;;6.42;86.54;101320.03;5023002;28;20030;-59
2023/03/29 06:13:01;;;;;;;9.60;4.63;;;;;;;6.46;86.74;101324.09;5029640;28;20030;-57
2023/03/29 06:15:27;;;;;;;8.57;4.20;;;;;;;6.48;86.10;101318.69;5022609;28;20032;-58
2023/03/29 06:17:52;;;;;;;9.35;4.68;;;;;;;6.49;85.97;101315.94;5024964;28;20029;-56
2023/03/29 06:20:17;;;;;;;7.40;4.55;;;;;;;6.54;86.06;101323.47;5026099;28;20393;-57
2023/03/29 06:22:45;;;;;;;8.43;4.60;;;;;;;6.55;85.95;101326.00;5022110;28;20026;-57
2023/03/29 06:25:11;;;;;;;10.65;4.90;;;;;;;6.56;86.40;101322.41;5024128;28;20036;-56
2023/03/29 06:27:36;;;;;;;10.55;4.50;;;;;;;6.58;86.68;101324.91;5023681;28;20029;-57
2023/03/29 06:30:03;;;;;;;7.93;4.50;;;;;;;6.61;86.01;101335.19;5027313;28;20026;-57
2023/03/29 06:32:29;;;;;;;8.77;4.80;;;;;;;6.62;86.29;101323.72;5024813;28;20044;-57
2023/03/29 06:34:54;;;;;;;10.93;4.82;;;;;;;6.64;86.90;101323.56;5025628;28;20117;-57
2023/03/29 06:37:22;;;;;;;10.18;4.95;;;;;;;6.67;86.60;101323.34;5029803;28;20120;-58
2023/03/29 06:39:52;;;;;;;9.93;4.40;;;;;;;6.67;87.14;101318.06;5031626;28;20511;-56
2023/03/29 06:42:19;;;;;;;10.38;4.70;;;;;;;6.71;86.95;101320.31;5033563;28;20057;-56
2023/03/29 06:44:44;;;;;;;13.13;5.20;;;;;;;6.74;87.58;101319.25;5037058;28;20052;-57
2023/03/29 06:47:10;;;;;;;14.43;4.63;;;;;;;6.80;87.02;101318.75;5031725;28;20458;-57
2023/03/29 06:49:35;;;;;;;9.90;4.63;;;;;;;6.83;87.54;101318.50;5031500;28;20033;-57
2023/03/29 06:52:00;;;;;;;10.10;5.13;;;;;;;6.86;87.32;101318.25;5031683;28;20049;-57
2023/03/29 06:54:25;;;;;;;11.23;5.03;;;;;;;6.93;86.98;101318.59;5032960;28;20061;-57
2023/03/29 06:56:51;;;;;;;8.68;4.85;;;;;;;6.95;87.75;101319.28;5032723;28;20040;-58
2023/03/29 06:59:17;;;;;;;9.90;4.68;;;;;;;7.00;87.58;101324.19;5032113;28;20057;-57
2023/03/29 07:01:43;;;;;;;10.50;5.20;;;;;;;7.02;87.67;101314.38;5033025;28;20034;-56
2023/03/29 07:04:09;;;;;;;9.68;4.95;;;;;;;7.08;87.82;101321.78;5040919;28;20104;-57
2023/03/29 07:06:39;;;;;;;11.32;5.10;;;;;;;7.10;87.50;101325.09;5029281;28;20488;-56
2023/03/29 07:09:05;;;;;;;9.27;5.13;;;;;;;7.14;87.63;101330.97;5036652;28;20026;-57
2023/03/29 07:11:35;;;;;;;11.43;4.80;;;;;;;7.15;88.06;101334.44;5028392;28;20044;-57
2023/03/29 07:14:01;;;;;;;11.45;5.38;;;;;;;7.16;88.05;101329.06;5030570;28;20025;-57
2023/03/29 07:16:27;;;;;;;11.13;5.28;;;;;;;7.18;88.11;101326.25;5036897;28;20025;-60
2023/03/29 07:18:52;;;;;;;10.38;4.93;;;;;;;7.22;88.38;101325.06;5021182;28;20496;-59
2023/03/29 07:21:19;;;;;;;11.57;5.22;;;;;;;7.24;88.19;101331.88;5025920;28;20091;-59
2023/03/29 07:23:44;;;;;;;12.48;5.30;;;;;;;7.26;88.60;101329.13;5028909;28;20030;-59
2023/03/29 07:26:10;;;;;;;10.82;5.00;;;;;;;7.32;88.14;101338.31;5030118;28;20503;-59
2023/03/29 07:28:36;;;;;;;10.68;4.97;;;;;;;7.34;88.19;101342.50;5030788;28;20026;-59
2023/03/29 07:31:06;;;;;;;9.88;4.95;;;;;;;7.34;88.76;101342.50;5027621;28;20184;-59
2023/03/29 07:33:33;;;;;;;10.20;4.90;;;;;;;7.35;88.66;101341.53;5028604;28;20033;-59
2023/03/29 07:35:59;;;;;;;10.32;5.05;;;;;;;7.38;88.04;101346.56;5030956;28;20034;-59
2023/03/29 07:38:25;;;;;;;11.43;5.18;;;;;;;7.44;88.57;101353.13;5030379;28;20107;-57
2023/03/29 07:40:50;;;;;;;13.80;5.15;;;;;;;7.44;88.59;101357.59;5029774;28;20060;-57
2023/03/29 07:43:17;;;;;;;11.20;4.90;;;;;;;7.47;88.70;101365.22;5041276;28;20021;-57
2023/03/29 07:45:43;;;;;;;10.65;5.43;;;;;;;7.52;88.32;101365.69;5028257;28;20546;-57
2023/03/29 07:48:08;;;;;;;11.73;5.32;;;;;;;7.53;88.57;101372.63;5027912;28;20050;-57
2023/03/29 07:50:34;;;;;;;13.65;5.50;;;;;;;7.53;89.20;101368.19;5035736;28;20170;-57
2023/03/29 07:53:00;;;;;;;15.40;5.53;;;;;;;7.50;89.40;101357.06;5031520;28;20531;-57
2023/03/29 07:55:25;;;;;;;13.35;6.68;;;;;;;7.56;90.23;101360.97;5031012;28;20022;-57
2023/03/29 07:57:51;;;;;;;14.48;5.40;;;;;;;7.56;90.85;101372.38;5026271;28;20575;-57
2023/03/29 08:00:18;;;;;;;13.38;5.53;;;;;;;7.56;91.27;101367.13;5028088;28;20032;-58
2023/03/29 08:02:46;;;;;;;12.15;5.32;;;;;;;7.53;92.00;101357.66;5034778;28;20032;-57
2023/03/29 08:05:13;;;;;;;14.30;5.80;;;;;;;7.59;92.56;101366.84;5038671;28;20026;-57
2023/03/29 08:07:40;;;;;;;11.82;5.70;;;;;;;7.60;93.47;101352.66;5025503;28;20453;-57
2023/03/29 08:10:08;;;;;;;12.95;5.68;;;;;;;7.62;93.55;101360.47;5031916;28;20513;-57
2023/03/29 08:12:33;;;;;;;13.02;6.38;;;;;;;7.62;94.52;101363.97;5027522;28;20060;-57
2023/03/29 08:14:59;;;;;;;11.98;6.03;;;;;;;7.66;95.25;101367.16;5023418;28;20026;-56
2023/03/29 08:17:24;;;;;;;14.40;6.30;;;;;;;7.69;95.71;101360.78;5031922;28;20148;-56
2023/03/29 08:19:50;;;;;;;13.20;6.15;;;;;;;7.71;95.85;101361.50;5028847;28;20030;-57
2023/03/29 08:22:15;;;;;;;12.10;5.97;;;;;;;7.74;96.66;101358.59;5041965;28;20048;-56
2023/03/29 08:24:41;;;;;;;14.45;6.13;;;;;;;7.76;95.85;101362.75;5041380;28;20366;-59
2023/03/29 08:27:06;;;;;;;13.70;6.38;;;;;;;7.77;96.57;101345.97;5035340;28;20029;-59
2023/03/29 08:29:32;;;;;;;13.15;6.43;;;;;;;7.84;97.03;101341.00;5028708;28;20033;-57
2023/03/29 08:31:57;;;;;;;14.25;6.80;;;;;;;7.88;97.50;101337.13;5035511;28;20112;-57
2023/03/29 08:34:22;;;;;;;12.77;6.45;;;;;;;7.96;97.00;101346.19;5031000;28;20033;-57
2023/03/29 08:36:48;;;;;;;13.70;6.50;;;;;;;7.99;97.35;101343.31;5032867;28;20058;-57
2023/03/29 08:39:13;;;;;;;12.77;6.72;;;;;;;8.03;96.97;101342.06;5035240;28;20045;-57
2023/03/29 08:41:51;;;;;;;13.05;6.70;;;;;;;8.06;96.69;101341.81;5030728;28;20040;-57
2023/03/29 08:44:34;;;;;;;12.82;6.40;;;;;;;8.10;96.79;101342.38;5031779;28;20034;-57
2023/03/29 08:47:26;;;;;;;14.93;6.65;;;;;;;8.15;97.58;101334.88;5024758;28;20049;-58
2023/03/29 08:49:55;;;;;;;14.55;6.95;;;;;;;8.23;97.36;101342.16;5034213;28;20034;-59
2023/03/29 08:52:37;;;;;;;12.63;6.85;;;;;;;8.30;97.64;101343.28;5034428;28;20029;-57
2023/03/29 08:55:18;;;;;;;14.00;6.80;;;;;;;8.34;97.21;101347.34;5030049;28;20072;-57
2023/03/29 08:57:50;;;;;;;16.00;6.85;;;;;;;8.39;97.05;101342.47;5032284;28;20488;-57
2023/03/29 09:00:36;;;;;;;15.95;7.05;;;;;;;8.44;97.76;101340.25;5033424;28;20053;-57
2023/03/29 09:03:10;;;;;;;13.13;6.70;;;;;;;8.48;97.58;101341.66;5028474;28;20033;-57
2023/03/29 09:05:43;;;;;;;15.30;6.97;;;;;;;8.53;97.34;101340.47;5022367;28;20029;-57
2023/03/29 09:08:15;;;;;;;14.80;6.75;;;;;;;8.56;96.27;101337.53;5039263;28;20033;-58
2023/03/29 09:10:51;;;;;;;14.30;6.70;;;;;;;8.58;96.40;101343.50;5025648;28;20041;-58
2023/03/29 09:13:35;;;;;;;15.20;7.05;;;;;;;8.59;95.17;101338.09;5029294;28;20366;-58
2023/03/29 09:16:17;;;;;;;15.02;6.40;;;;;;;8.57;96.32;101333.91;5029806;28;20615;-58
2023/03/29 09:19:00;;;;;;;15.80;6.47;;;;;;;8.59;96.13;101350.50;5032547;28;20026;-57
2023/03/29 09:21:40;;;;;;;;;;;;;;;8.55;96.39;101357.03;5032784;28;20040;-58
2023/03/29 09:24:34;;;;;;;17.83;7.32;;;;;;;8.48;99.19;101336.38;5028883;28;19995;-58
2023/03/29 09:27:08;;;;;;;16.80;7.68;;;;;;;8.47;100.00;101339.16;5019509;28;20037;-58
2023/03/29 09:29:37;;;;;;;17.25;7.95;;;;;;;8.47;100.00;101340.00;5037703;28;20025;-59
2023/03/29 09:32:05;;;;;;;17.38;8.48;;;;;;;8.51;100.00;101339.72;5040988;28;20025;-58
2023/03/29 09:34:43;;;;;;;17.50;8.07;;;;;;;8.48;100.00;101341.66;5021550;28;20030;-58
2023/03/29 09:37:23;;;;;;;17.48;7.93;;;;;;;8.54;100.00;101345.59;5035916;28;20025;-58
2023/03/29 09:39:51;;;;;;;14.40;7.57;;;;;;;8.59;100.00;101353.16;5034750;28;20055;-58
2023/03/29 09:42:18;;;;;;;15.13;7.88;;;;;;;8.61;100.00;101345.91;5032450;28;20025;-59
2023/03/29 09:44:51;;;;;;;14.65;7.85;;;;;;;8.63;100.00;101338.66;5026454;28;20032;-58
2023/03/29 09:47:23;;;;;;;16.20;8.07;;;;;;;8.63;100.00;101336.00;5035283;28;20513;-58
2023/03/29 09:49:54;;;;;;;16.00;8.07;;;;;;;8.65;100.00;101331.44;5023295;28;20033;-61
2023/03/29 09:52:19;;;;;;;15.00;7.82;;;;;;;8.69;100.00;101338.13;5037421;28;20038;-58
2023/03/29 09:54:45;;;;;;;14.45;8.32;;;;;;;8.71;100.00;101340.63;5031115;28;20029;-60
2023/03/29 09:57:14;;;;;;;19.77;8.48;;;;;;;8.72;100.00;101337.84;5033590;28;20037;-59
2023/03/29 09:59:39;;;;;;;18.55;8.25;;;;;;;8.72;100.00;101337.84;5033383;28;20028;-60
2023/03/29 10:02:11;;;;;;;18.15;8.68;;;;;;;8.73;100.00;101342.16;5018304;28;20021;-59
2023/03/29 10:04:38;;;;;;;13.02;8.25;;;;;;;8.75;100.00;101352.63;5026228;28;20025;-59
2023/03/29 10:07:06;;;;;;;14.13;7.97;;;;;;;8.77;100.00;101336.63;5024658;28;20025;-59
2023/03/29 10:09:33;;;;;;;14.80;8.43;;;;;;;8.86;100.00;101335.78;5022620;28;20022;-59
2023/03/29 10:12:03;;;;;;;15.57;8.63;;;;;;;8.93;100.00;101333.44;5019549;28;20361;-59
2023/03/29 10:14:29;;;;;;;16.27;8.55;;;;;;;9.02;100.00;101351.09;5022057;28;20026;-60
2023/03/29 10:16:55;;;;;;;14.60;8.60;;;;;;;9.05;100.00;101342.91;5026221;28;20049;-58
2023/03/29 10:19:26;;;;;;;17.83;8.80;;;;;;;9.13;100.00;101344.84;5030622;28;20021;-59
2023/03/29 10:21:53;;;;;;;13.02;8.52;;;;;;;9.22;100.00;101346.66;5047078;28;20032;-59
2023/03/29 10:24:21;;;;;;;15.15;7.80;;;;;;;9.19;100.00;101336.34;5039096;28;20108;-58
2023/03/29 10:26:48;;;;;;;15.40;8.13;;;;;;;9.19;100.00;101333.72;5029093;28;20053;-58
2023/03/29 10:29:14;;;;;;;13.88;7.55;;;;;;;9.19;100.00;101327.56;5027876;28;20021;-58
2023/03/29 10:31:41;;;;;;;12.75;7.93;;;;;;;9.26;100.00;101318.94;5024889;28;20704;-58
2023/03/29 10:34:09;;;;;;;14.70;8.38;;;;;;;9.40;100.00;101320.31;5031209;28;20156;-59
2023/03/29 10:36:40;;;;;;;14.75;8.00;;;;;;;9.51;100.00;101316.66;5028116;28;20037;-59
2023/03/29 10:39:08;;;;;;;14.32;7.70;;;;;;;9.66;100.00;101300.31;5033166;28;20030;-58
2023/03/29 10:41:34;;;;;;;16.10;7.65;;;;;;;9.76;100.00;101301.13;5030762;28;20139;-58
2023/03/29 10:44:00;;;;;;;15.07;7.70;;;;;;;9.83;100.00;101304.84;5025924;28;20026;-58
2023/03/29 10:46:31;;;;;;;14.00;7.50;;;;;;;9.96;100.00;101309.00;5026886;28;20462;-59
2023/03/29 10:49:04;;;;;;;11.95;7.25;;;;;;;10.04;100.00;101298.50;5031385;28;20040;-59
2023/03/29 10:51:32;;;;;;;14.85;7.38;;;;;;;10.15;100.00;101296.63;5030133;28;20219;-58
2023/03/29 10:53:58;;;;;;;13.45;7.32;;;;;;;10.21;100.00;101290.75;5026847;28;20148;-59
2023/03/29 10:56:38;;;;;;;14.13;7.20;;;;;;;10.34;100.00;101285.94;5032250;28;20116;-59
2023/03/29 10:59:21;;;;;;;15.25;7.53;;;;;;;10.61;100.00;101270.97;5033103;28;20041;-59
2023/03/29 11:01:59;;;;;;;;;;;;;;;10.73;100.00;101281.38;5030739;28;20033;-59
2023/03/29 11:04:24;;;;;;;11.50;7.32;;;;;;;10.89;98.94;101268.25;5034006;28;20267;-60
2023/03/29 11:07:08;;;;;;;13.63;7.28;;;;;;;10.96;96.96;101268.47;5030617;28;20112;-59
2023/03/29 11:10:08;;;;;;;11.65;6.90;;;;;;;11.04;96.16;101270.34;5029549;28;20052;-59
2023/03/29 11:12:45;;;;;;;14.35;7.00;;;;;;;11.19;97.19;101267.97;5020125;28;20050;-60
2023/03/29 11:15:32;;;;;;;10.18;6.75;;;;;;;11.36;94.83;101268.94;5018981;28;20033;-59
2023/03/29 11:18:18;;;;;;;10.82;6.70;;;;;;;11.53;94.47;101263.72;5030518;28;20060;-59
2023/03/29 11:20:53;;;;;;;11.52;6.13;;;;;;;11.64;92.61;101254.66;5034656;28;20107;-59
2023/03/29 11:23:33;;;;;;;13.00;6.60;;;;;;;11.64;91.91;101258.13;5026486;28;20025;-60
2023/03/29 11:26:36;;;;;;;12.23;6.40;;;;;;;11.70;92.74;101260.16;5028645;28;20033;-61
2023/03/29 11:29:15;;;;;;;10.82;6.85;;;;;;;11.75;90.84;101261.50;5023389;28;20033;-59
2023/03/29 11:32:13;;;;;;;11.55;6.43;;;;;;;11.82;90.92;101262.53;5029310;28;20412;-59
2023/03/29 11:35:01;;;;;;;12.75;7.07;;;;;;;11.86;90.03;101273.66;5025871;28;20482;-62
2023/03/29 11:37:58;;;;;;;13.40;6.53;;;;;;;11.89;90.48;101268.06;5032040;28;20030;-64
2023/03/29 11:41:00;;;;;;;11.55;6.50;;;;;;;11.98;89.70;101267.94;5024692;28;20029;-64
2023/03/29 11:43:48;;;;;;;11.48;6.45;;;;;;;12.09;89.22;101266.00;5022753;28;20029;-64